sensor_id;sensor_type;location;lat;lon;timestamp;temperature;humidity
10089;DHT22;51898;49.864;8.550;2023-03-20T00:00:59;9.20;90.70
10089;DHT22;51898;49.864;8.550;2023-03-20T00:04:01;9.20;90.80
10089;DHT22;51898;49.864;8.550;2023-03-20T00:07:03;9.10;90.80
10089;DHT22;51898;49.864;8.550;2023-03-20T00:10:05;9.10;90.80
10089;DHT22;51898;49.864;8.550;2023-03-20T00:13:14;9.20;90.70
10089;DHT22;51898;49.864;8.550;2023-03-20T00:16:20;9.20;90.70
10089;DHT22;51898;49.864;8.550;2023-03-20T00:19:25;9.10;90.70
10089;DHT22;51898;49.864;8.550;2023-03-20T00:22:28;9.20;90.50
10089;DHT22;51898;49.864;8.550;2023-03-20T00:25:32;9.20;90.40
10089;DHT22;51898;49.864;8.550;2023-03-20T00:28:43;9.20;90.60
10089;DHT22;51898;49.864;8.550;2023-03-20T00:31:45;9.20;90.40
10089;DHT22;51898;49.864;8.550;2023-03-20T00:34:46;9.20;90.20
10089;DHT22;51898;49.864;8.550;2023-03-20T00:37:49;9.30;90.10
10089;DHT22;51898;49.864;8.550;2023-03-20T00:40:51;9.30;90.10
10089;DHT22;51898;49.864;8.550;2023-03-20T00:43:58;9.30;90.00
10089;DHT22;51898;49.864;8.550;2023-03-20T00:47:15;9.40;89.80
10089;DHT22;51898;49.864;8.550;2023-03-20T00:50:23;9.40;89.70
10089;DHT22;51898;49.864;8.550;2023-03-20T00:53:25;9.30;89.70
10089;DHT22;51898;49.864;8.550;2023-03-20T00:56:42;9.30;89.70
10089;DHT22;51898;49.864;8.550;2023-03-20T00:59:55;9.30;89.80
10089;DHT22;51898;49.864;8.550;2023-03-20T01:02:58;9.30;89.90
10089;DHT22;51898;49.864;8.550;2023-03-20T01:05:59;9.30;90.00
10089;DHT22;51898;49.864;8.550;2023-03-20T01:09:01;9.30;90.20
10089;DHT22;51898;49.864;8.550;2023-03-20T01:12:04;9.30;90.20
10089;DHT22;51898;49.864;8.550;2023-03-20T01:15:17;9.20;90.40
10089;DHT22;51898;49.864;8.550;2023-03-20T01:18:20;9.20;90.50
10089;DHT22;51898;49.864;8.550;2023-03-20T01:21:22;9.20;90.30
10089;DHT22;51898;49.864;8.550;2023-03-20T01:24:24;9.20;90.40
10089;DHT22;51898;49.864;8.550;2023-03-20T01:27:25;9.20;90.50
10089;DHT22;51898;49.864;8.550;2023-03-20T01:30:30;9.20;90.70
10089;DHT22;51898;49.864;8.550;2023-03-20T01:33:32;9.20;90.70
10089;DHT22;51898;49.864;8.550;2023-03-20T01:36:33;9.20;90.60
10089;DHT22;51898;49.864;8.550;2023-03-20T01:39:37;9.20;90.70
10089;DHT22;51898;49.864;8.550;2023-03-20T01:42:38;9.20;90.90
10089;DHT22;51898;49.864;8.550;2023-03-20T01:45:58;9.20;91.00
10089;DHT22;51898;49.864;8.550;2023-03-20T01:52:22;9.20;91.30
10089;DHT22;51898;49.864;8.550;2023-03-20T01:55:24;9.10;91.30
10089;DHT22;51898;49.864;8.550;2023-03-20T01:58:35;9.10;91.40
10089;DHT22;51898;49.864;8.550;2023-03-20T02:01:39;9.10;91.40
10089;DHT22;51898;49.864;8.550;2023-03-20T02:04:45;9.10;91.70
10089;DHT22;51898;49.864;8.550;2023-03-20T02:11:19;9.10;92.10
10089;DHT22;51898;49.864;8.550;2023-03-20T02:14:23;9.10;92.20
10089;DHT22;51898;49.864;8.550;2023-03-20T02:17:25;9.20;92.20
10089;DHT22;51898;49.864;8.550;2023-03-20T02:20:32;9.10;92.40
10089;DHT22;51898;49.864;8.550;2023-03-20T02:27:00;9.20;92.40
10089;DHT22;51898;49.864;8.550;2023-03-20T02:30:27;9.20;92.30
10089;DHT22;51898;49.864;8.550;2023-03-20T02:33:42;9.20;92.50
10089;DHT22;51898;49.864;8.550;2023-03-20T02:47:04;9.10;93.20
10089;DHT22;51898;49.864;8.550;2023-03-20T02:50:35;9.10;93.20
10089;DHT22;51898;49.864;8.550;2023-03-20T02:54:16;9.10;93.40
10089;DHT22;51898;49.864;8.550;2023-03-20T03:00:37;9.10;93.60
10089;DHT22;51898;49.864;8.550;2023-03-20T03:03:47;9.10;93.50
10089;DHT22;51898;49.864;8.550;2023-03-20T03:06:51;9.10;93.60
10089;DHT22;51898;49.864;8.550;2023-03-20T03:10:04;9.10;93.70
10089;DHT22;51898;49.864;8.550;2023-03-20T03:13:12;9.10;93.70
10089;DHT22;51898;49.864;8.550;2023-03-20T03:16:20;9.10;93.80
10089;DHT22;51898;49.864;8.550;2023-03-20T03:19:25;9.10;93.80
10089;DHT22;51898;49.864;8.550;2023-03-20T03:22:28;9.10;93.80
10089;DHT22;51898;49.864;8.550;2023-03-20T03:25:35;9.10;93.90
10089;DHT22;51898;49.864;8.550;2023-03-20T03:28:50;9.10;93.80
10089;DHT22;51898;49.864;8.550;2023-03-20T03:31:54;9.10;94.00
10089;DHT22;51898;49.864;8.550;2023-03-20T03:34:57;9.10;94.10
10089;DHT22;51898;49.864;8.550;2023-03-20T03:38:20;9.10;94.30
10089;DHT22;51898;49.864;8.550;2023-03-20T03:41:33;9.10;94.30
10089;DHT22;51898;49.864;8.550;2023-03-20T03:45:07;9.10;94.40
10089;DHT22;51898;49.864;8.550;2023-03-20T03:48:16;9.10;94.30
10089;DHT22;51898;49.864;8.550;2023-03-20T03:51:23;9.10;94.40
10089;DHT22;51898;49.864;8.550;2023-03-20T03:57:48;9.10;94.50
10089;DHT22;51898;49.864;8.550;2023-03-20T04:00:53;9.10;94.40
10089;DHT22;51898;49.864;8.550;2023-03-20T04:03:58;9.10;94.40
10089;DHT22;51898;49.864;8.550;2023-03-20T04:07:05;9.10;94.40
10089;DHT22;51898;49.864;8.550;2023-03-20T04:10:07;9.10;94.30
10089;DHT22;51898;49.864;8.550;2023-03-20T04:13:09;9.10;94.20
10089;DHT22;51898;49.864;8.550;2023-03-20T04:16:12;9.20;94.20
10089;DHT22;51898;49.864;8.550;2023-03-20T04:19:17;9.20;94.10
10089;DHT22;51898;49.864;8.550;2023-03-20T04:22:19;9.20;93.80
10089;DHT22;51898;49.864;8.550;2023-03-20T04:25:23;9.20;93.80
10089;DHT22;51898;49.864;8.550;2023-03-20T04:28:25;9.20;93.70
10089;DHT22;51898;49.864;8.550;2023-03-20T04:31:27;9.20;93.80
10089;DHT22;51898;49.864;8.550;2023-03-20T04:34:29;9.20;93.70
10089;DHT22;51898;49.864;8.550;2023-03-20T04:37:30;9.20;93.80
10089;DHT22;51898;49.864;8.550;2023-03-20T04:40:32;9.30;93.70
10089;DHT22;51898;49.864;8.550;2023-03-20T04:43:33;9.30;93.50
10089;DHT22;51898;49.864;8.550;2023-03-20T04:46:35;9.30;93.30
10089;DHT22;51898;49.864;8.550;2023-03-20T04:49:37;9.30;93.20
10089;DHT22;51898;49.864;8.550;2023-03-20T04:52:38;9.30;93.40
10089;DHT22;51898;49.864;8.550;2023-03-20T04:55:40;9.30;93.30
10089;DHT22;51898;49.864;8.550;2023-03-20T04:58:42;9.30;93.30
10089;DHT22;51898;49.864;8.550;2023-03-20T05:01:43;9.40;93.20
10089;DHT22;51898;49.864;8.550;2023-03-20T05:04:45;9.40;93.10
10089;DHT22;51898;49.864;8.550;2023-03-20T05:07:53;9.40;93.10
10089;DHT22;51898;49.864;8.550;2023-03-20T06:26:01;9.50;93.60
10089;DHT22;51898;49.864;8.550;2023-03-20T06:29:03;9.50;93.60
10089;DHT22;51898;49.864;8.550;2023-03-20T06:32:08;9.50;93.70
10089;DHT22;51898;49.864;8.550;2023-03-20T06:35:11;9.50;93.70
10089;DHT22;51898;49.864;8.550;2023-03-20T06:38:13;9.50;93.60
10089;DHT22;51898;49.864;8.550;2023-03-20T06:41:15;9.50;93.60
10089;DHT22;51898;49.864;8.550;2023-03-20T06:44:34;9.60;93.70
10089;DHT22;51898;49.864;8.550;2023-03-20T06:47:36;9.60;93.70
10089;DHT22;51898;49.864;8.550;2023-03-20T06:50:38;9.60;93.70
10089;DHT22;51898;49.864;8.550;2023-03-20T06:53:40;9.60;93.70
10089;DHT22;51898;49.864;8.550;2023-03-20T06:56:44;9.70;93.70
10089;DHT22;51898;49.864;8.550;2023-03-20T06:59:46;9.60;94.10
10089;DHT22;51898;49.864;8.550;2023-03-20T07:02:48;9.70;94.10
10089;DHT22;51898;49.864;8.550;2023-03-20T07:05:49;9.70;94.40
10089;DHT22;51898;49.864;8.550;2023-03-20T07:08:51;9.70;95.10
10089;DHT22;51898;49.864;8.550;2023-03-20T07:11:53;9.80;95.50
10089;DHT22;51898;49.864;8.550;2023-03-20T07:14:55;9.80;95.50
10089;DHT22;51898;49.864;8.550;2023-03-20T07:17:56;9.90;95.40
10089;DHT22;51898;49.864;8.550;2023-03-20T07:21:00;9.90;95.50
10089;DHT22;51898;49.864;8.550;2023-03-20T07:24:03;10.00;95.30
10089;DHT22;51898;49.864;8.550;2023-03-20T07:27:07;10.00;95.30
10089;DHT22;51898;49.864;8.550;2023-03-20T07:30:09;10.00;95.10
10089;DHT22;51898;49.864;8.550;2023-03-20T07:33:11;10.00;95.50
10089;DHT22;51898;49.864;8.550;2023-03-20T07:36:13;10.00;94.90
10089;DHT22;51898;49.864;8.550;2023-03-20T07:39:15;10.00;94.70
10089;DHT22;51898;49.864;8.550;2023-03-20T07:42:17;9.90;95.00
10089;DHT22;51898;49.864;8.550;2023-03-20T07:45:19;9.90;95.30
10089;DHT22;51898;49.864;8.550;2023-03-20T07:48:20;9.90;95.70
10089;DHT22;51898;49.864;8.550;2023-03-20T07:51:22;10.10;95.50
10089;DHT22;51898;49.864;8.550;2023-03-20T07:54:24;10.10;95.30
10089;DHT22;51898;49.864;8.550;2023-03-20T07:57:26;9.90;95.30
10089;DHT22;51898;49.864;8.550;2023-03-20T08:00:28;9.90;95.60
10089;DHT22;51898;49.864;8.550;2023-03-20T08:03:30;9.80;95.90
10089;DHT22;51898;49.864;8.550;2023-03-20T08:06:32;9.80;96.50
10089;DHT22;51898;49.864;8.550;2023-03-20T08:09:34;9.80;96.90
10089;DHT22;51898;49.864;8.550;2023-03-20T08:12:36;9.80;97.20
10089;DHT22;51898;49.864;8.550;2023-03-20T08:15:37;10.00;97.60
10089;DHT22;51898;49.864;8.550;2023-03-20T08:18:40;10.10;97.30
10089;DHT22;51898;49.864;8.550;2023-03-20T08:21:42;10.20;97.10
10089;DHT22;51898;49.864;8.550;2023-03-20T08:24:44;10.30;96.60
10089;DHT22;51898;49.864;8.550;2023-03-20T08:27:46;10.40;96.50
10089;DHT22;51898;49.864;8.550;2023-03-20T08:30:48;10.50;96.40
10089;DHT22;51898;49.864;8.550;2023-03-20T08:33:50;10.70;95.90
10089;DHT22;51898;49.864;8.550;2023-03-20T08:36:52;10.80;94.50
10089;DHT22;51898;49.864;8.550;2023-03-20T08:39:54;10.80;93.90
10089;DHT22;51898;49.864;8.550;2023-03-20T08:42:56;10.70;93.50
10089;DHT22;51898;49.864;8.550;2023-03-20T08:45:57;10.70;93.60
10089;DHT22;51898;49.864;8.550;2023-03-20T08:48:59;10.70;93.80
10089;DHT22;51898;49.864;8.550;2023-03-20T08:52:01;10.60;94.00
10089;DHT22;51898;49.864;8.550;2023-03-20T08:55:03;10.50;93.80
10089;DHT22;51898;49.864;8.550;2023-03-20T08:58:05;10.30;94.30
10089;DHT22;51898;49.864;8.550;2023-03-20T09:01:08;10.20;95.00
10089;DHT22;51898;49.864;8.550;2023-03-20T09:04:12;10.20;95.30
10089;DHT22;51898;49.864;8.550;2023-03-20T09:07:13;10.30;95.70
10089;DHT22;51898;49.864;8.550;2023-03-20T09:10:16;10.40;95.60
10089;DHT22;51898;49.864;8.550;2023-03-20T09:13:18;10.50;95.50
10089;DHT22;51898;49.864;8.550;2023-03-20T09:16:28;10.60;95.10
10089;DHT22;51898;49.864;8.550;2023-03-20T09:19:30;10.60;94.30
10089;DHT22;51898;49.864;8.550;2023-03-20T09:22:32;10.70;94.00
10089;DHT22;51898;49.864;8.550;2023-03-20T09:25:34;10.60;93.80
10089;DHT22;51898;49.864;8.550;2023-03-20T09:28:36;10.70;93.80
10089;DHT22;51898;49.864;8.550;2023-03-20T09:31:38;10.70;93.90
10089;DHT22;51898;49.864;8.550;2023-03-20T09:34:39;10.70;93.60
10089;DHT22;51898;49.864;8.550;2023-03-20T09:37:42;10.70;93.90
10089;DHT22;51898;49.864;8.550;2023-03-20T09:40:56;11.20;94.10
10089;DHT22;51898;49.864;8.550;2023-03-20T09:47:18;11.70;91.50
10089;DHT22;51898;49.864;8.550;2023-03-20T09:50:27;12.10;90.20
10089;DHT22;51898;49.864;8.550;2023-03-20T09:53:39;12.40;88.40
10089;DHT22;51898;49.864;8.550;2023-03-20T09:56:43;12.70;86.20
10089;DHT22;51898;49.864;8.550;2023-03-20T09:59:46;13.00;85.20
10089;DHT22;51898;49.864;8.550;2023-03-20T10:03:00;13.20;84.30
10089;DHT22;51898;49.864;8.550;2023-03-20T10:06:05;13.60;82.50
10089;DHT22;51898;49.864;8.550;2023-03-20T10:09:20;13.60;82.60
10089;DHT22;51898;49.864;8.550;2023-03-20T10:12:45;13.80;79.80
10089;DHT22;51898;49.864;8.550;2023-03-20T10:19:15;14.00;79.50
10089;DHT22;51898;49.864;8.550;2023-03-20T10:22:44;14.20;79.00
10089;DHT22;51898;49.864;8.550;2023-03-20T10:26:05;14.30;78.00
10089;DHT22;51898;49.864;8.550;2023-03-20T10:29:25;14.30;76.70
10089;DHT22;51898;49.864;8.550;2023-03-20T10:32:47;14.30;75.30
10089;DHT22;51898;49.864;8.550;2023-03-20T10:39:49;13.70;74.20
10089;DHT22;51898;49.864;8.550;2023-03-20T10:43:18;13.70;75.00
10089;DHT22;51898;49.864;8.550;2023-03-20T10:46:30;13.80;76.70
10089;DHT22;51898;49.864;8.550;2023-03-20T10:49:38;13.90;77.20
10089;DHT22;51898;49.864;8.550;2023-03-20T10:52:42;13.90;77.20
10089;DHT22;51898;49.864;8.550;2023-03-20T10:55:45;13.70;77.70
10089;DHT22;51898;49.864;8.550;2023-03-20T10:58:49;13.70;78.60
10089;DHT22;51898;49.864;8.550;2023-03-20T11:01:54;13.60;78.00
10089;DHT22;51898;49.864;8.550;2023-03-20T11:04:59;13.60;77.90
10089;DHT22;51898;49.864;8.550;2023-03-20T11:08:10;13.50;77.50
10089;DHT22;51898;49.864;8.550;2023-03-20T11:11:12;13.60;77.50
10089;DHT22;51898;49.864;8.550;2023-03-20T11:14:20;13.80;78.20
10089;DHT22;51898;49.864;8.550;2023-03-20T11:17:27;14.00;78.40
10089;DHT22;51898;49.864;8.550;2023-03-20T11:20:36;14.30;77.50
10089;DHT22;51898;49.864;8.550;2023-03-20T11:23:38;14.60;74.50
10089;DHT22;51898;49.864;8.550;2023-03-20T11:26:41;14.60;73.60
10089;DHT22;51898;49.864;8.550;2023-03-20T11:29:45;14.70;74.70
10089;DHT22;51898;49.864;8.550;2023-03-20T11:32:49;14.60;72.70
10089;DHT22;51898;49.864;8.550;2023-03-20T11:35:56;14.60;72.90
10089;DHT22;51898;49.864;8.550;2023-03-20T11:39:22;14.60;72.40
10089;DHT22;51898;49.864;8.550;2023-03-20T11:42:27;14.70;72.70
10089;DHT22;51898;49.864;8.550;2023-03-20T11:45:44;14.90;72.30
10089;DHT22;51898;49.864;8.550;2023-03-20T11:49:03;15.00;71.10
10089;DHT22;51898;49.864;8.550;2023-03-20T11:52:12;15.00;71.00
10089;DHT22;51898;49.864;8.550;2023-03-20T11:55:26;15.20;70.00
10089;DHT22;51898;49.864;8.550;2023-03-20T11:58:28;15.40;67.80
10089;DHT22;51898;49.864;8.550;2023-03-20T12:01:38;15.50;66.30
10089;DHT22;51898;49.864;8.550;2023-03-20T12:04:44;15.80;66.50
10089;DHT22;51898;49.864;8.550;2023-03-20T12:07:49;16.00;64.30
10089;DHT22;51898;49.864;8.550;2023-03-20T12:11:06;16.20;62.50
10089;DHT22;51898;49.864;8.550;2023-03-20T12:14:21;16.20;59.10
10089;DHT22;51898;49.864;8.550;2023-03-20T12:20:46;16.10;57.60
10089;DHT22;51898;49.864;8.550;2023-03-20T12:27:35;16.00;55.50
10089;DHT22;51898;49.864;8.550;2023-03-20T12:30:58;15.60;56.70
10089;DHT22;51898;49.864;8.550;2023-03-20T12:34:26;15.80;55.20
10089;DHT22;51898;49.864;8.550;2023-03-20T12:37:29;15.80;54.30
10089;DHT22;51898;49.864;8.550;2023-03-20T12:40:43;15.70;52.50
10089;DHT22;51898;49.864;8.550;2023-03-20T12:44:07;15.60;54.30
10089;DHT22;51898;49.864;8.550;2023-03-20T12:51:02;15.50;55.50
10089;DHT22;51898;49.864;8.550;2023-03-20T12:54:35;15.20;54.20
10089;DHT22;51898;49.864;8.550;2023-03-20T13:01:12;15.00;56.30
10089;DHT22;51898;49.864;8.550;2023-03-20T13:11:24;15.00;54.10
10089;DHT22;51898;49.864;8.550;2023-03-20T13:14:36;15.10;52.80
10089;DHT22;51898;49.864;8.550;2023-03-20T13:17:51;15.10;55.60
10089;DHT22;51898;49.864;8.550;2023-03-20T13:20:59;15.00;56.20
10089;DHT22;51898;49.864;8.550;2023-03-20T13:30:36;15.40;56.20
10089;DHT22;51898;49.864;8.550;2023-03-20T13:34:06;15.40;56.70
10089;DHT22;51898;49.864;8.550;2023-03-20T13:37:36;15.40;55.30
10089;DHT22;51898;49.864;8.550;2023-03-20T13:40:42;15.20;54.90
10089;DHT22;51898;49.864;8.550;2023-03-20T13:43:53;15.20;55.20
10089;DHT22;51898;49.864;8.550;2023-03-20T13:47:01;15.20;55.00
10089;DHT22;51898;49.864;8.550;2023-03-20T13:50:43;15.20;53.90
10089;DHT22;51898;49.864;8.550;2023-03-20T13:57:24;15.20;51.20
10089;DHT22;51898;49.864;8.550;2023-03-20T14:03:55;15.30;52.30
10089;DHT22;51898;49.864;8.550;2023-03-20T14:06:58;15.10;51.30
10089;DHT22;51898;49.864;8.550;2023-03-20T14:13:23;15.10;50.20
10089;DHT22;51898;49.864;8.550;2023-03-20T14:16:28;15.10;49.90
10089;DHT22;51898;49.864;8.550;2023-03-20T14:19:30;15.10;50.90
10089;DHT22;51898;49.864;8.550;2023-03-20T14:22:38;15.00;50.00
10089;DHT22;51898;49.864;8.550;2023-03-20T14:25:41;14.70;50.40
10089;DHT22;51898;49.864;8.550;2023-03-20T14:28:54;14.60;51.00
10089;DHT22;51898;49.864;8.550;2023-03-20T14:32:33;14.60;52.20
10089;DHT22;51898;49.864;8.550;2023-03-20T14:35:47;14.80;52.20
10089;DHT22;51898;49.864;8.550;2023-03-20T14:38:54;14.90;53.00
10089;DHT22;51898;49.864;8.550;2023-03-20T14:42:19;14.80;52.90
10089;DHT22;51898;49.864;8.550;2023-03-20T14:45:35;14.90;53.20
10089;DHT22;51898;49.864;8.550;2023-03-20T14:48:47;14.90;51.40
10089;DHT22;51898;49.864;8.550;2023-03-20T14:51:55;15.00;51.70
10089;DHT22;51898;49.864;8.550;2023-03-20T14:58:51;15.00;51.20
10089;DHT22;51898;49.864;8.550;2023-03-20T15:01:58;15.10;51.40
10089;DHT22;51898;49.864;8.550;2023-03-20T15:05:01;14.80;50.50
10089;DHT22;51898;49.864;8.550;2023-03-20T15:08:08;14.90;52.90
10089;DHT22;51898;49.864;8.550;2023-03-20T15:11:12;14.90;48.40
10089;DHT22;51898;49.864;8.550;2023-03-20T15:14:21;14.60;47.90
10089;DHT22;51898;49.864;8.550;2023-03-20T15:17:33;14.50;47.90
10089;DHT22;51898;49.864;8.550;2023-03-20T15:20:35;14.40;47.30
10089;DHT22;51898;49.864;8.550;2023-03-20T15:23:40;14.30;45.40
10089;DHT22;51898;49.864;8.550;2023-03-20T15:26:42;14.10;47.30
10089;DHT22;51898;49.864;8.550;2023-03-20T15:29:49;14.10;47.70
10089;DHT22;51898;49.864;8.550;2023-03-20T15:32:53;13.90;48.20
10089;DHT22;51898;49.864;8.550;2023-03-20T15:35:56;13.80;48.00
10089;DHT22;51898;49.864;8.550;2023-03-20T15:39:17;13.60;47.10
10089;DHT22;51898;49.864;8.550;2023-03-20T15:42:20;13.40;47.50
10089;DHT22;51898;49.864;8.550;2023-03-20T15:45:31;13.30;48.90
10089;DHT22;51898;49.864;8.550;2023-03-20T15:48:33;13.20;49.90
10089;DHT22;51898;49.864;8.550;2023-03-20T15:51:34;13.10;50.90
10089;DHT22;51898;49.864;8.550;2023-03-20T15:54:36;13.00;50.90
10089;DHT22;51898;49.864;8.550;2023-03-20T15:57:40;13.00;49.40
10089;DHT22;51898;49.864;8.550;2023-03-20T16:00:45;13.00;49.30
10089;DHT22;51898;49.864;8.550;2023-03-20T16:03:49;13.00;49.90
10089;DHT22;51898;49.864;8.550;2023-03-20T16:06:54;12.90;49.20
10089;DHT22;51898;49.864;8.550;2023-03-20T16:09:57;12.80;49.40
10089;DHT22;51898;49.864;8.550;2023-03-20T16:12:59;12.70;50.00
10089;DHT22;51898;49.864;8.550;2023-03-20T16:16:03;12.70;50.00
10089;DHT22;51898;49.864;8.550;2023-03-20T16:19:06;12.50;49.20
10089;DHT22;51898;49.864;8.550;2023-03-20T16:22:19;12.40;50.20
10089;DHT22;51898;49.864;8.550;2023-03-20T16:25:23;12.40;49.50
10089;DHT22;51898;49.864;8.550;2023-03-20T16:28:26;12.30;50.00
10089;DHT22;51898;49.864;8.550;2023-03-20T16:31:30;12.30;50.40
10089;DHT22;51898;49.864;8.550;2023-03-20T16:34:37;12.10;50.40
10089;DHT22;51898;49.864;8.550;2023-03-20T16:37:50;12.10;51.40
10089;DHT22;51898;49.864;8.550;2023-03-20T16:40:54;12.10;52.50
10089;DHT22;51898;49.864;8.550;2023-03-20T16:43:57;12.00;52.80
10089;DHT22;51898;49.864;8.550;2023-03-20T16:47:15;12.00;53.10
10089;DHT22;51898;49.864;8.550;2023-03-20T16:50:22;12.00;53.60
10089;DHT22;51898;49.864;8.550;2023-03-20T16:53:40;12.00;53.80
10089;DHT22;51898;49.864;8.550;2023-03-20T16:56:51;11.90;54.00
10089;DHT22;51898;49.864;8.550;2023-03-20T16:59:55;11.80;54.80
10089;DHT22;51898;49.864;8.550;2023-03-20T17:03:15;11.70;55.20
10089;DHT22;51898;49.864;8.550;2023-03-20T17:09:28;11.50;56.20
10089;DHT22;51898;49.864;8.550;2023-03-20T17:12:31;11.40;57.30
10089;DHT22;51898;49.864;8.550;2023-03-20T17:15:33;11.40;57.60
10089;DHT22;51898;49.864;8.550;2023-03-20T17:18:35;11.30;57.30
10089;DHT22;51898;49.864;8.550;2023-03-20T17:21:37;11.30;56.90
10089;DHT22;51898;49.864;8.550;2023-03-20T17:24:39;11.20;57.30
10089;DHT22;51898;49.864;8.550;2023-03-20T17:27:40;11.20;58.10
10089;DHT22;51898;49.864;8.550;2023-03-20T17:30:42;11.20;57.80
10089;DHT22;51898;49.864;8.550;2023-03-20T17:33:46;11.10;58.20
10089;DHT22;51898;49.864;8.550;2023-03-20T17:36:48;11.10;58.40
10089;DHT22;51898;49.864;8.550;2023-03-20T17:39:49;11.00;59.10
10089;DHT22;51898;49.864;8.550;2023-03-20T17:42:51;11.00;59.00
10089;DHT22;51898;49.864;8.550;2023-03-20T17:45:54;11.00;59.30
10089;DHT22;51898;49.864;8.550;2023-03-20T17:49:09;10.90;59.00
10089;DHT22;51898;49.864;8.550;2023-03-20T17:52:17;10.90;59.50
10089;DHT22;51898;49.864;8.550;2023-03-20T17:55:19;10.80;59.60
10089;DHT22;51898;49.864;8.550;2023-03-20T17:58:22;10.80;59.80
10089;DHT22;51898;49.864;8.550;2023-03-20T18:01:25;10.70;60.20
10089;DHT22;51898;49.864;8.550;2023-03-20T18:04:27;10.70;60.30
10089;DHT22;51898;49.864;8.550;2023-03-20T18:07:29;10.70;60.70
10089;DHT22;51898;49.864;8.550;2023-03-20T18:10:31;10.70;61.00
10089;DHT22;51898;49.864;8.550;2023-03-20T18:13:33;10.60;60.70
10089;DHT22;51898;49.864;8.550;2023-03-20T18:16:34;10.70;61.20
10089;DHT22;51898;49.864;8.550;2023-03-20T18:19:36;10.60;61.30
10089;DHT22;51898;49.864;8.550;2023-03-20T18:22:38;10.60;61.60
10089;DHT22;51898;49.864;8.550;2023-03-20T18:25:41;10.60;61.50
10089;DHT22;51898;49.864;8.550;2023-03-20T18:28:43;10.70;61.80
10089;DHT22;51898;49.864;8.550;2023-03-20T18:31:47;10.70;61.90
10089;DHT22;51898;49.864;8.550;2023-03-20T18:34:49;10.60;61.80
10089;DHT22;51898;49.864;8.550;2023-03-20T18:37:50;10.60;61.80
10089;DHT22;51898;49.864;8.550;2023-03-20T18:40:52;10.60;61.70
10089;DHT22;51898;49.864;8.550;2023-03-20T18:43:54;10.50;61.40
10089;DHT22;51898;49.864;8.550;2023-03-20T18:46:56;10.50;61.70
10089;DHT22;51898;49.864;8.550;2023-03-20T18:49:57;10.60;62.30
10089;DHT22;51898;49.864;8.550;2023-03-20T18:52:59;10.60;62.00
10089;DHT22;51898;49.864;8.550;2023-03-20T18:56:01;10.60;62.20
10089;DHT22;51898;49.864;8.550;2023-03-20T18:59:05;10.60;62.70
10089;DHT22;51898;49.864;8.550;2023-03-20T19:02:08;10.60;62.90
10089;DHT22;51898;49.864;8.550;2023-03-20T19:05:10;10.60;63.10
10089;DHT22;51898;49.864;8.550;2023-03-20T19:08:16;10.50;62.90
10089;DHT22;51898;49.864;8.550;2023-03-20T19:11:18;10.60;63.40
10089;DHT22;51898;49.864;8.550;2023-03-20T19:14:22;10.60;63.00
10089;DHT22;51898;49.864;8.550;2023-03-20T19:17:26;10.60;63.20
10089;DHT22;51898;49.864;8.550;2023-03-20T19:20:39;10.50;63.80
10089;DHT22;51898;49.864;8.550;2023-03-20T19:23:42;10.50;64.00
10089;DHT22;51898;49.864;8.550;2023-03-20T19:26:43;10.50;64.00
10089;DHT22;51898;49.864;8.550;2023-03-20T19:29:45;10.50;64.10
10089;DHT22;51898;49.864;8.550;2023-03-20T19:32:47;10.50;63.90
10089;DHT22;51898;49.864;8.550;2023-03-20T19:35:49;10.50;64.10
10089;DHT22;51898;49.864;8.550;2023-03-20T19:39:10;10.50;64.20
10089;DHT22;51898;49.864;8.550;2023-03-20T19:42:12;10.50;64.70
10089;DHT22;51898;49.864;8.550;2023-03-20T19:45:35;10.50;64.80
10089;DHT22;51898;49.864;8.550;2023-03-20T19:48:38;10.50;65.10
10089;DHT22;51898;49.864;8.550;2023-03-20T19:51:50;10.50;65.30
10089;DHT22;51898;49.864;8.550;2023-03-20T19:54:52;10.40;65.60
10089;DHT22;51898;49.864;8.550;2023-03-20T19:58:05;10.40;65.70
10089;DHT22;51898;49.864;8.550;2023-03-20T20:01:09;10.40;65.70
10089;DHT22;51898;49.864;8.550;2023-03-20T20:04:16;10.40;65.70
10089;DHT22;51898;49.864;8.550;2023-03-20T20:07:17;10.40;65.80
10089;DHT22;51898;49.864;8.550;2023-03-20T20:10:47;10.30;65.80
10089;DHT22;51898;49.864;8.550;2023-03-20T20:13:50;10.40;66.00
10089;DHT22;51898;49.864;8.550;2023-03-20T20:17:07;10.40;66.20
10089;DHT22;51898;49.864;8.550;2023-03-20T20:20:10;10.40;67.60
10089;DHT22;51898;49.864;8.550;2023-03-20T20:23:14;10.40;68.30
10089;DHT22;51898;49.864;8.550;2023-03-20T20:26:16;10.40;68.70
10089;DHT22;51898;49.864;8.550;2023-03-20T20:29:19;10.30;69.40
10089;DHT22;51898;49.864;8.550;2023-03-20T20:32:23;10.40;69.20
10089;DHT22;51898;49.864;8.550;2023-03-20T20:35:26;10.30;69.50
10089;DHT22;51898;49.864;8.550;2023-03-20T20:38:47;10.30;70.20
10089;DHT22;51898;49.864;8.550;2023-03-20T20:41:52;10.30;70.90
10089;DHT22;51898;49.864;8.550;2023-03-20T20:44:53;10.30;71.60
10089;DHT22;51898;49.864;8.550;2023-03-20T20:47:55;10.20;71.90
10089;DHT22;51898;49.864;8.550;2023-03-20T20:51:00;10.20;72.80
10089;DHT22;51898;49.864;8.550;2023-03-20T20:54:05;10.20;72.70
10089;DHT22;51898;49.864;8.550;2023-03-20T20:57:09;10.20;72.70
10089;DHT22;51898;49.864;8.550;2023-03-20T21:00:13;10.20;73.30
10089;DHT22;51898;49.864;8.550;2023-03-20T21:03:15;10.10;73.20
10089;DHT22;51898;49.864;8.550;2023-03-20T21:06:18;10.20;73.00
10089;DHT22;51898;49.864;8.550;2023-03-20T21:09:19;10.10;72.80
10089;DHT22;51898;49.864;8.550;2023-03-20T21:12:21;10.10;72.80
10089;DHT22;51898;49.864;8.550;2023-03-20T21:15:38;10.10;72.90
10089;DHT22;51898;49.864;8.550;2023-03-20T21:18:41;10.10;72.60
10089;DHT22;51898;49.864;8.550;2023-03-20T21:21:43;10.10;72.70
10089;DHT22;51898;49.864;8.550;2023-03-20T21:24:45;10.10;73.40
10089;DHT22;51898;49.864;8.550;2023-03-20T21:27:47;10.00;74.00
10089;DHT22;51898;49.864;8.550;2023-03-20T21:30:49;10.00;74.50
10089;DHT22;51898;49.864;8.550;2023-03-20T21:34:11;10.00;75.20
10089;DHT22;51898;49.864;8.550;2023-03-20T21:37:15;9.90;75.40
10089;DHT22;51898;49.864;8.550;2023-03-20T21:40:36;10.00;75.50
10089;DHT22;51898;49.864;8.550;2023-03-20T21:43:38;10.00;75.60
10089;DHT22;51898;49.864;8.550;2023-03-20T21:46:40;9.90;75.50
10089;DHT22;51898;49.864;8.550;2023-03-20T21:50:02;9.90;74.90
10089;DHT22;51898;49.864;8.550;2023-03-20T21:53:23;9.90;75.80
10089;DHT22;51898;49.864;8.550;2023-03-20T21:56:45;9.90;75.80
10089;DHT22;51898;49.864;8.550;2023-03-20T22:00:08;9.90;75.70
10089;DHT22;51898;49.864;8.550;2023-03-20T22:03:30;9.90;75.50
10089;DHT22;51898;49.864;8.550;2023-03-20T22:06:51;9.90;75.60
10089;DHT22;51898;49.864;8.550;2023-03-20T22:10:13;9.90;75.30
10089;DHT22;51898;49.864;8.550;2023-03-20T22:13:34;9.90;75.10
10089;DHT22;51898;49.864;8.550;2023-03-20T22:16:56;9.80;75.20
10089;DHT22;51898;49.864;8.550;2023-03-20T22:20:18;9.80;75.50
10089;DHT22;51898;49.864;8.550;2023-03-20T22:23:39;9.80;75.50